createdAt,value
2019-03-08T00:03:01.564Z,0.83
2019-03-08T00:08:07.811Z,0.80
2019-03-08T00:13:14.239Z,1.13
2019-03-08T00:18:21.588Z,0.77
2019-03-08T00:23:28.593Z,1.00
2019-03-08T00:28:34.328Z,0.73
2019-03-08T00:33:41.016Z,0.73
2019-03-08T00:38:47.563Z,0.70
2019-03-08T00:43:53.719Z,0.70
2019-03-08T00:48:59.968Z,0.50
2019-03-08T00:54:06.790Z,0.50
2019-03-08T00:59:15.471Z,0.70
2019-03-08T01:04:21.453Z,0.80
2019-03-08T01:09:27.104Z,0.80
2019-03-08T01:14:33.209Z,0.90
2019-03-08T01:19:39.395Z,0.93
2019-03-08T01:24:45.571Z,0.90
2019-03-08T01:29:51.794Z,0.93
2019-03-08T01:35:01.771Z,1.10
2019-03-08T01:40:09.451Z,1.00
2019-03-08T01:45:16.734Z,0.70
2019-03-08T01:50:27.868Z,0.90
2019-03-08T01:55:35.409Z,1.27
2019-03-08T02:00:44.481Z,0.73
2019-03-08T02:05:53.909Z,0.97
2019-03-08T02:11:01.748Z,1.20
2019-03-08T02:16:08.327Z,0.90
2019-03-08T02:21:16.979Z,0.73
2019-03-08T02:26:27.435Z,0.90
2019-03-08T02:31:36.811Z,1.10
2019-03-08T02:36:43.859Z,0.90
2019-03-08T02:41:51.467Z,1.03
2019-03-08T02:46:58.931Z,0.93
2019-03-08T02:52:06.897Z,0.70
2019-03-08T02:57:13.064Z,0.80
2019-03-08T03:02:18.806Z,1.00
2019-03-08T03:07:25.921Z,1.10
2019-03-08T03:12:34.131Z,0.93
2019-03-08T03:17:40.184Z,0.80
2019-03-08T03:22:45.864Z,1.10
2019-03-08T03:27:52.694Z,0.67
2019-03-08T03:32:59.987Z,0.73
2019-03-08T03:38:06.431Z,0.83
2019-03-08T03:43:15.033Z,0.80
2019-03-08T03:48:22.108Z,0.60
2019-03-08T03:53:28.227Z,0.80
2019-03-08T03:58:34.038Z,0.50
2019-03-08T04:03:39.620Z,1.00
2019-03-08T04:08:46.150Z,0.80
2019-03-08T04:13:52.322Z,0.90
2019-03-08T04:18:58.828Z,0.80
2019-03-08T04:24:05.670Z,1.00
2019-03-08T04:29:11.436Z,0.73
2019-03-08T04:34:17.366Z,0.70
2019-03-08T04:39:25.125Z,0.77
2019-03-08T04:44:31.051Z,0.63
2019-03-08T04:49:38.024Z,0.70
2019-03-08T04:54:44.358Z,0.60
2019-03-08T04:59:50.054Z,0.70
2019-03-08T05:04:55.793Z,0.60
2019-03-08T05:10:01.466Z,0.80
2019-03-08T05:15:09.118Z,0.63
2019-03-08T05:20:14.945Z,0.80
2019-03-08T05:25:20.473Z,0.70
2019-03-08T05:30:26.807Z,0.57
2019-03-08T05:35:32.862Z,0.70
2019-03-08T05:40:40.065Z,0.77
2019-03-08T05:45:46.141Z,0.50
2019-03-08T05:50:51.868Z,0.70
2019-03-08T05:55:57.579Z,0.60
2019-03-08T06:01:04.370Z,1.00
2019-03-08T06:06:11.751Z,0.77
2019-03-08T06:11:17.327Z,0.70
2019-03-08T06:16:24.637Z,0.77
2019-03-08T06:21:31.340Z,0.50
2019-03-08T06:26:37.116Z,0.67
2019-03-08T06:31:42.717Z,0.90
2019-03-08T06:36:48.793Z,0.90
2019-03-08T06:41:54.916Z,0.80
2019-03-08T06:47:00.690Z,0.70
2019-03-08T06:52:06.247Z,0.70
2019-03-08T06:57:12.176Z,0.77
2019-03-08T07:02:19.483Z,0.70
2019-03-08T07:07:25.794Z,0.57
2019-03-08T07:12:33.085Z,0.43
2019-03-08T07:17:39.679Z,0.50
2019-03-08T07:22:58.856Z,0.80
2019-03-08T07:28:06.493Z,0.67
2019-03-08T07:33:16.861Z,0.70
2019-03-08T07:38:33.266Z,0.77
2019-03-08T07:43:43.769Z,0.70
2019-03-08T07:48:58.324Z,0.50
2019-03-08T07:54:11.747Z,0.63
2019-03-08T07:59:21.990Z,0.80
2019-03-08T08:04:42.828Z,0.97
2019-03-08T08:09:51.105Z,1.27
2019-03-08T08:15:14.849Z,1.20
2019-03-08T08:26:28.447Z,1.30
2019-03-08T08:31:37.632Z,1.43
2019-03-08T08:36:51.292Z,1.67
2019-03-08T08:42:00.167Z,1.37
2019-03-08T08:47:24.203Z,1.63
2019-03-08T08:52:31.459Z,1.30
2019-03-08T08:57:43.712Z,1.80
2019-03-08T09:03:07.845Z,1.77
2019-03-08T09:08:25.913Z,1.50
2019-03-08T09:13:35.924Z,1.80
2019-03-08T09:18:52.993Z,1.83
2019-03-08T09:24:12.151Z,1.60
2019-03-08T09:29:20.716Z,1.87
2019-03-08T09:34:46.430Z,2.57
2019-03-08T09:39:58.254Z,2.40
2019-03-08T09:45:11.717Z,2.30
2019-03-08T09:50:20.411Z,1.70
2019-03-08T09:55:27.951Z,2.50
2019-03-08T10:00:45.359Z,2.67
2019-03-08T10:06:02.830Z,4.23
2019-03-08T10:11:13.181Z,4.57
2019-03-08T10:16:20.767Z,3.30
2019-03-08T10:21:45.023Z,2.30
2019-03-08T10:27:08.010Z,2.83
2019-03-08T10:32:17.191Z,1.50
2019-03-08T10:37:37.866Z,2.10
2019-03-08T10:42:46.963Z,2.03
2019-03-08T10:47:56.467Z,1.43
2019-03-08T10:53:08.918Z,0.90
2019-03-08T10:58:27.846Z,1.00
2019-03-08T11:03:37.880Z,0.83
2019-03-08T11:08:45.676Z,1.00
2019-03-08T11:14:02.008Z,0.77
2019-03-08T11:19:15.373Z,1.20
2019-03-08T11:24:22.965Z,1.07
2019-03-08T11:29:37.359Z,0.80
2019-03-08T11:34:51.929Z,1.13
2019-03-08T11:39:55.608Z,1.63
2019-03-08T11:45:19.594Z,1.20
2019-03-08T11:50:43.752Z,1.27
2019-03-08T11:55:52.623Z,1.00
2019-03-08T12:01:05.962Z,1.17
2019-03-08T12:06:22.337Z,1.20
2019-03-08T12:11:30.487Z,1.60
2019-03-08T12:16:57.147Z,1.47
2019-03-08T12:22:10.985Z,1.30
2019-03-08T12:27:35.568Z,1.67
2019-03-08T12:32:55.521Z,1.60
2019-03-08T12:38:06.641Z,1.90
2019-03-08T12:43:23.535Z,1.77
2019-03-08T12:48:47.244Z,1.43
2019-03-08T12:54:09.645Z,2.03
2019-03-08T12:59:23.870Z,2.63
2019-03-08T13:04:31.904Z,2.27
2019-03-08T13:09:43.292Z,1.73
2019-03-08T13:14:50.304Z,2.67
2019-03-08T13:19:56.365Z,1.80
2019-03-08T13:25:02.828Z,2.03
2019-03-08T13:30:15.067Z,1.60
2019-03-08T13:35:21.398Z,2.50
2019-03-08T13:40:27.178Z,1.53
2019-03-08T13:45:34.729Z,1.60
2019-03-08T13:50:41.187Z,2.27
2019-03-08T13:55:47.909Z,2.20
2019-03-08T14:00:56.048Z,1.67
2019-03-08T14:06:02.599Z,1.60
2019-03-08T14:11:10.011Z,1.90
2019-03-08T14:16:18.406Z,1.60
2019-03-08T14:21:24.329Z,1.77
2019-03-08T14:26:31.834Z,1.53
2019-03-08T14:31:49.235Z,1.97
2019-03-08T14:36:54.642Z,1.40
2019-03-08T14:42:19.319Z,1.43
2019-03-08T14:47:29.370Z,1.97
2019-03-08T14:52:35.696Z,1.90
2019-03-08T14:57:42.131Z,1.70
2019-03-08T15:02:48.679Z,1.30
2019-03-08T15:07:55.188Z,2.60
2019-03-08T15:13:01.474Z,1.90
2019-03-08T15:18:09.677Z,2.47
2019-03-08T15:23:17.126Z,3.63
2019-03-08T15:28:27.161Z,1.70
2019-03-08T15:33:35.632Z,1.43
2019-03-08T15:38:45.263Z,1.93
2019-03-08T15:43:52.742Z,2.10
2019-03-08T15:49:00.497Z,1.93
2019-03-08T15:54:07.942Z,1.83
2019-03-08T15:59:14.161Z,1.80
2019-03-08T16:04:21.104Z,2.20
2019-03-08T16:09:30.410Z,2.00
2019-03-08T16:14:35.993Z,1.73
2019-03-08T16:19:44.353Z,1.90
2019-03-08T16:24:51.487Z,2.17
2019-03-08T16:30:02.999Z,2.10
2019-03-08T16:35:07.812Z,1.93
2019-03-08T16:40:17.981Z,1.97
2019-03-08T16:45:31.079Z,1.60
2019-03-08T16:50:40.279Z,2.07
2019-03-08T16:55:50.283Z,2.20
2019-03-08T17:01:06.990Z,1.77
2019-03-08T17:06:31.478Z,1.97
2019-03-08T17:11:38.994Z,1.97
2019-03-08T17:16:56.699Z,1.80
2019-03-08T17:22:03.912Z,2.17
2019-03-08T17:27:13.290Z,2.30
2019-03-08T17:32:21.764Z,2.67
2019-03-08T17:37:36.696Z,3.30
2019-03-08T17:42:49.903Z,3.27
2019-03-08T17:48:04.335Z,2.83
2019-03-08T17:53:28.301Z,2.10
2019-03-08T17:58:35.741Z,2.47
2019-03-08T18:03:45.767Z,2.27
2019-03-08T18:08:55.894Z,3.23
2019-03-08T18:14:20.250Z,2.10
2019-03-08T18:19:30.352Z,2.93
2019-03-08T18:24:54.487Z,2.90
2019-03-08T18:30:03.887Z,2.97
2019-03-08T18:35:14.835Z,2.60
2019-03-08T18:40:28.923Z,2.87
2019-03-08T18:45:43.042Z,3.93
2019-03-08T18:50:55.330Z,2.73
2019-03-08T18:56:04.061Z,2.93
2019-03-08T19:01:28.112Z,2.50
2019-03-08T19:06:39.180Z,2.47
2019-03-08T19:11:59.150Z,2.97
2019-03-08T19:17:06.540Z,2.70
2019-03-08T19:22:30.960Z,2.77
2019-03-08T19:27:44.860Z,3.10
2019-03-08T19:33:04.027Z,3.00
2019-03-08T19:38:17.179Z,2.97
2019-03-08T19:43:30.621Z,3.00
2019-03-08T19:48:46.637Z,2.60
2019-03-08T19:54:10.565Z,3.33
2019-03-08T19:59:33.957Z,3.30
2019-03-08T20:04:42.056Z,3.20
2019-03-08T20:10:06.512Z,2.83
2019-03-08T20:15:29.448Z,2.87
2019-03-08T20:20:56.945Z,2.50
2019-03-08T20:26:10.786Z,2.43
2019-03-08T20:31:18.667Z,2.33
2019-03-08T20:36:39.977Z,2.97
2019-03-08T20:41:56.880Z,3.23
2019-03-08T20:47:04.915Z,2.43
2019-03-08T20:52:10.566Z,2.60
2019-03-08T20:57:18.652Z,2.77
2019-03-08T21:02:24.302Z,3.23
2019-03-08T21:07:30.520Z,2.30
2019-03-08T21:12:36.090Z,2.63
2019-03-08T21:17:43.756Z,2.40
2019-03-08T21:22:50.009Z,2.80
2019-03-08T21:27:56.241Z,2.50
2019-03-08T21:33:02.409Z,2.93
2019-03-08T21:38:09.234Z,3.00
2019-03-08T21:43:15.204Z,2.53
2019-03-08T21:48:21.581Z,2.17
2019-03-08T21:53:27.502Z,2.67
2019-03-08T21:58:34.961Z,2.33
2019-03-08T22:03:41.100Z,2.50
2019-03-08T22:08:49.436Z,2.77
2019-03-08T22:13:55.383Z,2.63
2019-03-08T22:19:01.818Z,2.40
2019-03-08T22:24:13.470Z,1.80
2019-03-08T22:29:15.249Z,2.37
2019-03-08T22:34:21.254Z,2.63
2019-03-08T22:39:27.037Z,2.27
2019-03-08T22:44:32.959Z,2.10
2019-03-08T22:49:39.240Z,2.10
2019-03-08T22:54:44.842Z,2.27
2019-03-08T22:59:50.441Z,1.90
2019-03-08T23:04:56.995Z,2.50
2019-03-08T23:10:03.308Z,2.27
2019-03-08T23:15:09.610Z,2.10
2019-03-08T23:20:16.042Z,2.47
2019-03-08T23:25:21.677Z,2.57
2019-03-08T23:30:28.657Z,2.57
2019-03-08T23:35:35.195Z,3.37
2019-03-08T23:40:41.136Z,3.47
2019-03-08T23:45:47.037Z,3.60
2019-03-08T23:50:52.670Z,3.83
2019-03-08T23:55:58.316Z,3.80
